Time;durP1;ratioP1;P1;durP2;ratioP2;P2;SDS_P1;SDS_P2;PMS_P1;PMS_P2;Temp;Humidity;BMP_temperature;BMP_pressure;BME280_temperature;BME280_humidity;BME280_pressure;Samples;Min_cycle;Max_cycle;Signal;HPM_P1;HPM_P2
2023/04/12 00:00:59;;;;;;;10.82;3.17;;;7.40;99.90;;;;;;4997186;28;20084;-87
2023/04/12 00:03:25;;;;;;;5.32;2.45;;;7.40;99.90;;;;;;5029532;28;20517;-85
2023/04/12 00:05:53;;;;;;;7.57;2.60;;;7.40;99.90;;;;;;5031034;28;20049;-85
2023/04/12 00:08:25;;;;;;;9.27;2.85;;;7.40;99.90;;;;;;5032375;28;20049;-85
2023/04/12 00:10:51;;;;;;;10.20;2.95;;;7.40;99.90;;;;;;4998384;28;20132;-85
2023/04/12 00:13:17;;;;;;;6.90;2.33;;;7.40;99.90;;;;;;5013759;28;20166;-85
2023/04/12 00:15:43;;;;;;;9.32;2.78;;;7.40;99.90;;;;;;4997352;28;20073;-86
2023/04/12 00:18:09;;;;;;;8.50;2.80;;;7.50;99.90;;;;;;5013017;28;20510;-85
2023/04/12 00:20:35;;;;;;;9.00;3.15;;;7.50;99.90;;;;;;5013018;28;20136;-85
2023/04/12 00:23:01;;;;;;;7.10;2.42;;;7.60;99.90;;;;;;5030157;28;20045;-84
2023/04/12 00:25:26;;;;;;;4.70;2.35;;;7.50;99.90;;;;;;5029654;28;20053;-85
2023/04/12 00:27:52;;;;;;;8.50;2.65;;;7.50;99.90;;;;;;5013141;28;20045;-85
2023/04/12 00:30:18;;;;;;;6.35;2.65;;;7.50;99.90;;;;;;5029702;28;20091;-85
2023/04/12 00:32:43;;;;;;;5.22;2.35;;;7.50;99.90;;;;;;5030651;28;20046;-85
2023/04/12 00:35:09;;;;;;;8.88;2.78;;;7.50;99.90;;;;;;5013114;28;20048;-85
2023/04/12 00:37:35;;;;;;;6.75;2.67;;;7.60;99.90;;;;;;5030379;28;20049;-86
2023/04/12 00:40:01;;;;;;;11.23;2.63;;;7.60;99.90;;;;;;5012901;28;20053;-84
2023/04/12 00:42:27;;;;;;;6.97;2.58;;;7.50;99.90;;;;;;5013009;28;20042;-85
2023/04/12 00:44:53;;;;;;;4.95;2.97;;;7.50;99.90;;;;;;5029758;28;20053;-84
2023/04/12 00:47:18;;;;;;;9.50;2.53;;;7.60;99.90;;;;;;5011906;28;20061;-85
2023/04/12 00:49:44;;;;;;;7.68;2.92;;;7.60;99.90;;;;;;4993619;28;20045;-85
2023/04/12 00:52:10;;;;;;;8.35;2.88;;;7.60;99.90;;;;;;4977695;28;20081;-85
2023/04/12 00:54:36;;;;;;;8.70;2.45;;;7.60;99.90;;;;;;4945687;28;20531;-85
2023/04/12 00:57:02;;;;;;;9.38;2.90;;;7.60;99.90;;;;;;4977476;28;20054;-85
2023/04/12 00:59:27;;;;;;;4.07;2.40;;;7.70;99.90;;;;;;4993325;28;20089;-85
2023/04/12 01:01:56;;;;;;;11.07;3.42;;;7.40;99.90;;;;;;4993947;28;20701;-86
2023/04/12 01:04:25;;;;;;;10.95;2.50;;;7.70;99.90;;;;;;5012937;28;20164;-85
2023/04/12 01:07:03;;;;;;;10.65;2.90;;;7.70;99.90;;;;;;4980561;28;20042;-84
2023/04/12 01:09:34;;;;;;;7.18;2.72;;;7.70;99.90;;;;;;5012152;28;20052;-87
2023/04/12 01:12:25;;;;;;;9.95;2.80;;;7.70;99.90;;;;;;4980690;28;20132;-84
2023/04/12 01:15:06;;;;;;;5.15;2.50;;;7.70;99.90;;;;;;5011110;28;20091;-85
2023/04/12 01:17:36;;;;;;;7.70;2.90;;;7.80;99.90;;;;;;4997790;28;20045;-85
2023/04/12 01:20:15;;;;;;;5.25;2.40;;;7.70;99.90;;;;;;4996874;28;20561;-85
2023/04/12 01:23:05;;;;;;;7.22;2.70;;;7.80;99.90;;;;;;4996578;28;20141;-85
2023/04/12 01:25:33;;;;;;;12.93;2.72;;;7.80;99.90;;;;;;5012650;28;20045;-85
2023/04/12 01:28:05;;;;;;;10.13;2.80;;;7.90;99.90;;;;;;5012472;28;20374;-86
2023/04/12 01:30:31;;;;;;;9.05;2.30;;;7.90;99.90;;;;;;5028951;28;20429;-84
2023/04/12 01:32:59;;;;;;;8.75;2.85;;;8.10;99.90;;;;;;4979665;28;20057;-84
2023/04/12 01:35:30;;;;;;;7.82;2.78;;;8.20;99.90;;;;;;4980520;28;20055;-88
2023/04/12 01:37:57;;;;;;;6.80;2.63;;;8.30;99.90;;;;;;5012110;28;20053;-85
2023/04/12 01:40:23;;;;;;;7.60;2.65;;;8.40;99.90;;;;;;4995997;28;20064;-85
2023/04/12 01:42:48;;;;;;;10.40;2.70;;;7.70;99.90;;;;;;5012371;28;20052;-85
2023/04/12 01:45:14;;;;;;;12.23;2.67;;;8.50;99.90;;;;;;5011751;28;20045;-84
2023/04/12 01:47:40;;;;;;;10.68;3.20;;;8.50;99.90;;;;;;5012366;28;20394;-85
2023/04/12 01:50:41;;;;;;;9.50;2.63;;;8.50;99.90;;;;;;5012230;28;20057;-86
2023/04/12 01:53:43;;;;;;;11.38;3.03;;;8.60;99.90;;;;;;4974846;28;20460;-85
2023/04/12 01:56:09;;;;;;;8.93;2.63;;;8.60;99.90;;;;;;4959350;28;20062;-85
2023/04/12 01:58:36;;;;;;;11.07;2.80;;;8.70;99.90;;;;;;4979618;28;20045;-85
2023/04/12 02:01:02;;;;;;;4.93;2.42;;;8.70;99.90;;;;;;4979146;28;20827;-85
2023/04/12 02:03:29;;;;;;;6.88;2.60;;;8.70;99.90;;;;;;4978978;28;20053;-85
2023/04/12 02:05:55;;;;;;;11.75;4.03;;;8.70;99.90;;;;;;4980070;28;20045;-85
2023/04/12 02:08:21;;;;;;;4.93;2.60;;;8.70;99.90;;;;;;4980206;28;20042;-86
2023/04/12 02:10:46;;;;;;;7.85;2.40;;;8.60;99.90;;;;;;4980047;28;20064;-85
2023/04/12 02:13:12;;;;;;;6.07;2.78;;;8.60;99.90;;;;;;4996017;28;20099;-85
2023/04/12 02:15:39;;;;;;;12.38;3.63;;;8.60;99.90;;;;;;5012546;28;20041;-85
2023/04/12 02:18:05;;;;;;;7.57;3.85;;;8.60;99.90;;;;;;5011822;28;20574;-86
2023/04/12 02:20:31;;;;;;;5.93;2.83;;;8.50;99.90;;;;;;4995617;28;20053;-86
2023/04/12 02:22:56;;;;;;;8.32;3.00;;;8.50;99.90;;;;;;5029045;28;20053;-85
2023/04/12 02:25:22;;;;;;;9.35;2.97;;;8.40;99.90;;;;;;4994915;28;20065;-86
2023/04/12 02:27:48;;;;;;;8.60;3.20;;;8.40;99.90;;;;;;5014736;28;20049;-85
2023/04/12 02:30:14;;;;;;;6.30;3.03;;;8.40;99.90;;;;;;5015622;28;20042;-86
2023/04/12 02:32:43;;;;;;;11.60;3.15;;;8.40;99.90;;;;;;5015320;28;20045;-85
2023/04/12 02:35:12;;;;;;;5.90;2.58;;;8.40;99.90;;;;;;5015710;28;20549;-85
2023/04/12 02:37:38;;;;;;;6.97;3.30;;;8.40;99.90;;;;;;5012553;28;20049;-85
2023/04/12 02:40:05;;;;;;;8.52;2.60;;;8.40;99.90;;;;;;4996055;28;20086;-85
2023/04/12 02:42:31;;;;;;;5.45;2.58;;;8.40;99.90;;;;;;4979906;28;20104;-85
2023/04/12 02:44:57;;;;;;;5.40;2.50;;;8.50;99.90;;;;;;4996421;28;20046;-86
2023/04/12 02:47:27;;;;;;;7.15;2.92;;;8.50;99.90;;;;;;5012229;28;20085;-86
2023/04/12 02:49:53;;;;;;;7.28;2.60;;;8.50;99.90;;;;;;4995778;28;20639;-85
2023/04/12 02:52:19;;;;;;;9.68;3.30;;;8.50;99.90;;;;;;4979451;28;20088;-85
2023/04/12 02:54:45;;;;;;;6.72;2.25;;;8.50;99.90;;;;;;4995962;28;20062;-85
2023/04/12 02:57:11;;;;;;;7.05;2.40;;;8.50;99.90;;;;;;4979191;28;20050;-85
2023/04/12 02:59:38;;;;;;;9.30;2.67;;;8.50;99.90;;;;;;4994765;28;20069;-86
2023/04/12 03:02:03;;;;;;;10.45;2.67;;;8.50;99.90;;;;;;4995707;28;20061;-85
2023/04/12 03:04:29;;;;;;;6.13;2.10;;;8.50;99.90;;;;;;5012357;28;20057;-85
2023/04/12 03:06:55;;;;;;;10.73;2.55;;;8.50;99.90;;;;;;4996066;28;20108;-85
2023/04/12 03:09:21;;;;;;;4.25;2.30;;;8.50;99.90;;;;;;4995466;28;20053;-85
2023/04/12 03:11:47;;;;;;;5.40;2.67;;;8.50;99.90;;;;;;4979021;28;20046;-85
2023/04/12 03:14:13;;;;;;;8.05;2.30;;;8.50;99.90;;;;;;5012371;28;20050;-86
2023/04/12 03:16:38;;;;;;;4.90;1.90;;;8.50;99.90;;;;;;4978670;28;20072;-85
2023/04/12 03:19:05;;;;;;;5.05;1.90;;;8.50;99.90;;;;;;4994594;28;20042;-86
2023/04/12 03:21:32;;;;;;;6.88;2.00;;;8.50;99.90;;;;;;5010561;28;20050;-84
2023/04/12 03:23:58;;;;;;;7.68;2.15;;;8.60;99.90;;;;;;4978838;28;20081;-85
2023/04/12 03:26:25;;;;;;;6.68;1.90;;;8.60;99.90;;;;;;4994964;28;20046;-86
2023/04/12 03:28:54;;;;;;;6.43;1.90;;;8.60;99.90;;;;;;4994974;28;20049;-86
2023/04/12 03:31:20;;;;;;;6.28;1.88;;;8.70;99.90;;;;;;4994399;28;20663;-86
2023/04/12 03:33:46;;;;;;;4.65;1.90;;;8.70;99.90;;;;;;4993637;28;20046;-85
2023/04/12 03:36:11;;;;;;;3.50;1.60;;;8.60;99.90;;;;;;4993705;28;20045;-86
2023/04/12 03:38:37;;;;;;;6.13;1.80;;;8.70;99.90;;;;;;4992706;28;20053;-84
2023/04/12 03:41:03;;;;;;;5.75;2.72;;;8.70;99.90;;;;;;4993812;28;20057;-85
2023/04/12 03:43:34;;;;;;;4.75;1.80;;;8.70;99.90;;;;;;5011698;28;20049;-85
2023/04/12 03:46:01;;;;;;;4.75;1.88;;;8.70;99.90;;;;;;4994638;28;20057;-86
2023/04/12 03:48:27;;;;;;;6.57;2.10;;;8.70;99.90;;;;;;4962059;28;20399;-86
2023/04/12 03:50:53;;;;;;;6.53;2.50;;;8.80;99.90;;;;;;5011409;28;20054;-86
2023/04/12 03:53:20;;;;;;;7.47;2.00;;;8.80;99.90;;;;;;4993220;28;20111;-85
2023/04/12 03:55:45;;;;;;;5.53;1.98;;;8.80;99.90;;;;;;4993736;28;20061;-86
2023/04/12 03:58:12;;;;;;;7.53;2.60;;;8.80;99.90;;;;;;4961650;28;20049;-85
2023/04/12 04:00:38;;;;;;;4.43;2.33;;;8.80;99.90;;;;;;4993727;28;20405;-85
2023/04/12 04:03:04;;;;;;;3.40;1.83;;;8.90;99.90;;;;;;4960651;28;20061;-85
2023/04/12 04:05:30;;;;;;;4.57;2.30;;;8.90;99.90;;;;;;4977666;28;20054;-84
2023/04/12 04:08:01;;;;;;;4.80;2.22;;;8.80;99.90;;;;;;5011147;28;20046;-84
2023/04/12 04:10:29;;;;;;;5.63;2.00;;;8.80;99.90;;;;;;4978798;28;20077;-85
2023/04/12 04:12:55;;;;;;;8.00;2.40;;;8.90;99.90;;;;;;4977885;28;20054;-85
2023/04/12 04:15:21;;;;;;;6.78;2.70;;;8.80;99.90;;;;;;4977736;28;20064;-86
2023/04/12 04:17:47;;;;;;;4.88;2.50;;;8.70;99.90;;;;;;4993790;28;20576;-84
2023/04/12 04:20:13;;;;;;;6.20;2.83;;;8.70;99.90;;;;;;5011127;28;20793;-84
2023/04/12 04:22:41;;;;;;;8.05;2.58;;;8.70;99.90;;;;;;4993196;28;20050;-86
2023/04/12 04:25:07;;;;;;;6.57;2.70;;;8.50;99.90;;;;;;4994506;28;20057;-84
2023/04/12 04:27:33;;;;;;;7.70;2.70;;;8.50;99.90;;;;;;4978530;28;20088;-85
2023/04/12 04:30:01;;;;;;;5.55;2.45;;;8.50;99.90;;;;;;5011374;28;20116;-84
2023/04/12 04:32:27;;;;;;;8.77;2.58;;;8.50;99.90;;;;;;4977707;28;20381;-85
2023/04/12 04:34:59;;;;;;;8.68;2.80;;;8.40;99.90;;;;;;4993268;28;20145;-85
2023/04/12 04:37:27;;;;;;;7.10;3.10;;;8.30;99.90;;;;;;5010054;28;20061;-85
2023/04/12 04:39:52;;;;;;;6.72;2.80;;;8.70;99.90;;;;;;4976478;28;20045;-84
2023/04/12 04:42:18;;;;;;;7.65;3.38;;;8.20;99.90;;;;;;5010168;28;20060;-84
2023/04/12 04:44:44;;;;;;;7.28;3.13;;;8.20;99.90;;;;;;4992637;28;20482;-85
2023/04/12 04:47:09;;;;;;;8.90;3.20;;;8.00;99.90;;;;;;4992611;28;20060;-84
2023/04/12 04:49:36;;;;;;;6.60;2.90;;;8.10;99.90;;;;;;4992192;28;20099;-85
2023/04/12 04:52:03;;;;;;;6.15;3.13;;;8.10;99.90;;;;;;5009497;28;20049;-83
2023/04/12 04:54:29;;;;;;;8.13;2.90;;;8.00;99.90;;;;;;4976657;28;20048;-84
2023/04/12 04:56:56;;;;;;;4.72;2.95;;;8.00;99.90;;;;;;4992420;28;20058;-85
2023/04/12 04:59:22;;;;;;;5.43;2.70;;;8.00;99.90;;;;;;4992369;28;20452;-84
2023/04/12 05:01:48;;;;;;;8.38;3.28;;;8.00;99.90;;;;;;4992679;28;20082;-84
2023/04/12 05:04:14;;;;;;;8.07;3.15;;;8.10;99.90;;;;;;5008281;28;20104;-84
2023/04/12 05:06:39;;;;;;;7.25;2.92;;;8.00;99.90;;;;;;4992676;28;20096;-84
2023/04/12 05:09:05;;;;;;;7.90;3.35;;;8.00;99.90;;;;;;5009760;28;20050;-83
2023/04/12 05:11:31;;;;;;;10.20;3.97;;;8.00;99.90;;;;;;5008530;28;20072;-85
2023/04/12 05:13:57;;;;;;;6.72;3.10;;;8.00;99.90;;;;;;4992137;28;20046;-85
2023/04/12 05:16:22;;;;;;;11.68;3.40;;;7.10;99.90;;;;;;4975978;28;20557;-85
2023/04/12 05:18:48;;;;;;;6.43;2.65;;;7.90;99.90;;;;;;4992382;28;20045;-84
2023/04/12 05:21:13;;;;;;;6.88;2.88;;;8.00;99.90;;;;;;5009948;28;20085;-85
2023/04/12 05:23:44;;;;;;;11.63;3.00;;;7.90;99.90;;;;;;5009676;28;20052;-85
2023/04/12 05:26:10;;;;;;;6.03;2.50;;;7.80;99.90;;;;;;4960019;28;20437;-85
2023/04/12 05:28:36;;;;;;;7.47;3.05;;;7.80;99.90;;;;;;5009201;28;20085;-86
2023/04/12 05:31:02;;;;;;;7.03;3.00;;;7.70;99.90;;;;;;5009308;28;20479;-86
2023/04/12 05:33:27;;;;;;;6.82;3.10;;;7.70;99.90;;;;;;5009365;28;20450;-83
2023/04/12 05:35:53;;;;;;;9.07;3.00;;;7.70;99.90;;;;;;5009065;28;20539;-85
2023/04/12 05:38:18;;;;;;;7.68;2.80;;;7.70;99.90;;;;;;4992865;28;20513;-88
2023/04/12 05:40:44;;;;;;;4.80;2.72;;;7.70;99.90;;;;;;4992580;28;20391;-85
2023/04/12 05:43:13;;;;;;;6.95;3.03;;;7.70;99.90;;;;;;4975979;28;20087;-87
2023/04/12 05:45:40;;;;;;;4.93;2.63;;;7.70;99.90;;;;;;4978339;28;20132;-86
2023/04/12 05:48:05;;;;;;;5.55;2.65;;;7.70;99.90;;;;;;4995877;28;20050;-84
2023/04/12 05:50:31;;;;;;;8.50;2.50;;;7.70;99.90;;;;;;4967130;28;20053;-85
2023/04/12 05:52:57;;;;;;;7.43;2.28;;;7.60;99.90;;;;;;5018057;28;20041;-85
2023/04/12 05:55:22;;;;;;;9.23;2.90;;;7.70;99.90;;;;;;5010564;28;20053;-87
2023/04/12 05:57:48;;;;;;;7.10;2.60;;;7.60;99.90;;;;;;4994613;28;20417;-82
2023/04/12 06:00:17;;;;;;;6.72;3.20;;;7.60;99.90;;;;;;5027812;28;20497;-84
2023/04/12 06:02:46;;;;;;;4.13;2.60;;;7.60;99.90;;;;;;4994565;28;20426;-84
2023/04/12 06:05:13;;;;;;;5.50;2.70;;;7.60;99.90;;;;;;4995168;28;20058;-84
2023/04/12 06:07:40;;;;;;;8.88;3.53;;;7.70;99.90;;;;;;5010434;28;20682;-85
2023/04/12 06:10:07;;;;;;;6.30;2.70;;;7.60;99.90;;;;;;4994930;28;20061;-84
2023/04/12 06:12:32;;;;;;;7.95;2.85;;;7.60;99.90;;;;;;5010978;28;20053;-83
2023/04/12 06:14:58;;;;;;;6.15;2.97;;;7.70;99.90;;;;;;4994946;28;20053;-88
2023/04/12 06:17:24;;;;;;;7.25;2.72;;;7.70;99.90;;;;;;5027670;28;20042;-85
2023/04/12 06:19:50;;;;;;;7.65;3.13;;;7.60;99.90;;;;;;5010434;28;20046;-84
2023/04/12 06:22:15;;;;;;;9.40;3.83;;;7.60;99.90;;;;;;5010305;28;20057;-87
2023/04/12 06:24:41;;;;;;;9.52;3.33;;;7.60;99.90;;;;;;5010894;28;20053;-87
2023/04/12 06:27:07;;;;;;;10.35;3.55;;;7.50;99.90;;;;;;5010847;28;20496;-86
2023/04/12 06:29:33;;;;;;;6.90;2.78;;;7.60;99.90;;;;;;5028343;28;20144;-83
2023/04/12 06:31:59;;;;;;;10.45;3.05;;;7.60;99.90;;;;;;5018893;28;20124;-84
2023/04/12 06:34:24;;;;;;;7.22;3.47;;;7.60;99.90;;;;;;5009872;28;20099;-85
2023/04/12 06:36:50;;;;;;;8.73;3.45;;;7.60;99.90;;;;;;4964411;28;20049;-88
2023/04/12 06:39:16;;;;;;;8.65;3.63;;;7.60;99.90;;;;;;5018288;28;20045;-87
2023/04/12 06:41:46;;;;;;;7.05;3.17;;;7.60;99.90;;;;;;5000731;28;20058;-86
2023/04/12 06:44:12;;;;;;;8.82;3.88;;;7.60;99.90;;;;;;4968943;28;20665;-87
2023/04/12 06:46:37;;;;;;;12.60;3.90;;;7.60;99.90;;;;;;4985480;28;20049;-86
2023/04/12 06:49:03;;;;;;;7.43;3.40;;;7.60;99.90;;;;;;5027399;28;20054;-87
2023/04/12 06:51:29;;;;;;;9.00;3.65;;;7.50;99.90;;;;;;5010882;28;20540;-87
2023/04/12 06:53:56;;;;;;;5.45;2.97;;;7.60;99.90;;;;;;4994645;28;20577;-87
2023/04/12 06:56:22;;;;;;;6.45;3.38;;;7.60;99.90;;;;;;5028474;28;20053;-87
2023/04/12 06:58:48;;;;;;;8.00;3.50;;;7.60;99.90;;;;;;5011088;28;20445;-87
2023/04/12 07:01:13;;;;;;;9.68;3.50;;;7.60;99.90;;;;;;4994905;28;20445;-87
2023/04/12 07:03:39;;;;;;;10.88;3.75;;;7.60;99.90;;;;;;5010965;28;20066;-87
2023/04/12 07:06:05;;;;;;;6.78;3.47;;;7.60;99.90;;;;;;5012857;28;20061;-88
2023/04/12 07:08:34;;;;;;;7.38;3.63;;;7.60;99.90;;;;;;5010989;28;20084;-88
2023/04/12 07:11:00;;;;;;;10.40;3.65;;;7.70;99.90;;;;;;4994688;28;20429;-87
2023/04/12 07:13:26;;;;;;;6.15;3.85;;;7.70;99.90;;;;;;5029390;28;20049;-88
2023/04/12 07:15:53;;;;;;;8.32;3.80;;;7.70;99.90;;;;;;5031948;28;20379;-83
2023/04/12 07:18:19;;;;;;;6.70;3.67;;;7.70;99.90;;;;;;5031581;28;20492;-89
2023/04/12 07:20:51;;;;;;;6.30;3.58;;;7.70;99.90;;;;;;5000500;28;20148;-86
2023/04/12 07:23:17;;;;;;;7.43;3.95;;;7.70;99.90;;;;;;4998601;28;20045;-89
2023/04/12 07:25:42;;;;;;;6.75;3.70;;;7.70;99.90;;;;;;5001093;28;20116;-89
2023/04/12 07:28:08;;;;;;;5.97;3.40;;;7.70;99.90;;;;;;4994907;28;20049;-88
2023/04/12 07:30:34;;;;;;;7.45;3.70;;;7.70;99.90;;;;;;5008119;28;20049;-83
2023/04/12 07:33:04;;;;;;;7.63;3.95;;;7.70;99.90;;;;;;5014228;28;20053;-85
2023/04/12 07:35:30;;;;;;;6.90;4.55;;;7.70;99.90;;;;;;5014196;28;20107;-86
2023/04/12 07:37:56;;;;;;;6.57;4.30;;;7.70;99.90;;;;;;5031702;28;20057;-88
2023/04/12 07:40:22;;;;;;;5.93;3.85;;;7.70;99.90;;;;;;5030436;28;20045;-88
2023/04/12 07:42:47;;;;;;;9.43;3.80;;;7.70;99.90;;;;;;4999403;28;20045;-88
2023/04/12 07:45:13;;;;;;;5.72;3.72;;;7.70;99.90;;;;;;5032154;28;20100;-88
2023/04/12 07:47:39;;;;;;;7.60;4.55;;;7.70;99.90;;;;;;4981714;28;20064;-88
2023/04/12 07:50:05;;;;;;;7.78;4.28;;;7.70;99.90;;;;;;5013687;28;20057;-84
2023/04/12 07:52:31;;;;;;;8.95;4.07;;;7.70;99.90;;;;;;5012833;28;20107;-88
2023/04/12 07:54:57;;;;;;;8.52;4.13;;;7.70;99.90;;;;;;4991632;28;20486;-85
2023/04/12 07:57:23;;;;;;;7.22;4.32;;;7.80;99.90;;;;;;5010864;28;20049;-86
2023/04/12 07:59:49;;;;;;;10.80;4.50;;;7.80;99.90;;;;;;5014597;28;20136;-88
2023/04/12 08:02:23;;;;;;;7.75;4.45;;;7.70;99.90;;;;;;4997353;28;20053;-88
2023/04/12 08:04:52;;;;;;;;;;;7.70;99.90;;;;;;5010858;28;20188;-89
2023/04/12 08:07:18;;;;;;;6.10;4.55;;;7.70;99.90;;;;;;4993996;28;19971;-86
2023/04/12 08:09:43;;;;;;;5.90;4.20;;;7.80;99.90;;;;;;4977687;28;20089;-89
2023/04/12 08:12:10;;;;;;;10.27;4.65;;;7.70;99.90;;;;;;4993790;28;20049;-87
2023/04/12 08:14:36;;;;;;;8.77;4.20;;;7.80;99.90;;;;;;5009979;28;20061;-86
2023/04/12 08:17:01;;;;;;;7.32;5.03;;;6.60;99.90;;;;;;4976897;28;20065;-85
2023/04/12 08:19:27;;;;;;;7.88;5.22;;;7.80;99.90;;;;;;4993686;28;20052;-87
2023/04/12 08:21:53;;;;;;;9.10;5.50;;;7.90;99.90;;;;;;4993364;28;20054;-88
2023/04/12 08:24:19;;;;;;;6.45;5.03;;;7.90;99.90;;;;;;4993411;28;20132;-86
2023/04/12 08:26:45;;;;;;;7.13;5.10;;;7.90;99.90;;;;;;4993616;28;20487;-88
2023/04/12 08:29:11;;;;;;;9.00;5.20;;;7.90;99.90;;;;;;4994064;28;20441;-88
2023/04/12 08:31:38;;;;;;;7.72;5.15;;;8.00;99.90;;;;;;4993784;28;20061;-87
2023/04/12 08:34:04;;;;;;;5.28;4.80;;;8.00;99.90;;;;;;4977557;28;20398;-88
2023/04/12 08:36:29;;;;;;;6.72;5.18;;;8.00;99.90;;;;;;5009978;28;20054;-88
2023/04/12 08:38:59;;;;;;;5.78;5.03;;;8.10;99.90;;;;;;5009403;28;20463;-88
2023/04/12 08:41:24;;;;;;;8.20;5.32;;;8.10;99.90;;;;;;5009658;28;20061;-88
2023/04/12 08:43:50;;;;;;;5.55;4.80;;;8.20;99.90;;;;;;4977256;28;20050;-90
2023/04/12 08:46:16;;;;;;;7.97;5.20;;;8.20;99.90;;;;;;4976868;28;20513;-90
2023/04/12 08:48:46;;;;;;;9.45;5.18;;;8.20;99.90;;;;;;4977291;28;20053;-90
2023/04/12 08:51:18;;;;;;;7.63;5.68;;;8.30;99.90;;;;;;5009885;28;20406;-91
2023/04/12 08:53:44;;;;;;;5.78;5.07;;;8.30;99.90;;;;;;4977392;28;20058;-90
2023/04/12 08:56:13;;;;;;;8.23;5.60;;;8.50;99.90;;;;;;5025873;28;20057;-89
2023/04/12 08:58:44;;;;;;;7.15;5.55;;;8.40;99.90;;;;;;4976771;28;20088;-89
2023/04/12 09:01:14;;;;;;;7.50;4.95;;;8.40;99.90;;;;;;4977339;28;20037;-89
2023/04/12 09:03:43;;;;;;;5.25;4.50;;;8.40;99.90;;;;;;4977458;28;20053;-88
2023/04/12 09:06:10;;;;;;;6.72;4.93;;;8.50;99.90;;;;;;4996530;28;20054;-90
2023/04/12 09:08:35;;;;;;;7.30;5.30;;;8.40;99.90;;;;;;5011136;28;20140;-90
2023/04/12 09:11:02;;;;;;;6.28;4.85;;;8.40;99.90;;;;;;4973091;28;20145;-88
2023/04/12 09:13:34;;;;;;;8.45;4.97;;;8.30;99.90;;;;;;4973141;28;20054;-89
2023/04/12 09:16:00;;;;;;;6.40;5.75;;;8.40;99.90;;;;;;4957179;28;20054;-90
2023/04/12 09:18:28;;;;;;;7.50;5.20;;;8.50;99.90;;;;;;4973041;28;20054;-87
2023/04/12 09:21:07;;;;;;;5.80;5.30;;;8.50;99.90;;;;;;4955476;28;20050;-87
2023/04/12 09:23:35;;;;;;;6.38;5.03;;;8.50;99.90;;;;;;4971250;28;20054;-87
2023/04/12 09:26:00;;;;;;;5.55;5.03;;;8.40;99.90;;;;;;4955772;28;20184;-87
2023/04/12 09:28:27;;;;;;;6.97;5.32;;;8.40;99.90;;;;;;4955951;28;20261;-87
2023/04/12 09:30:53;;;;;;;8.23;5.55;;;8.40;99.90;;;;;;4955467;28;20046;-87
2023/04/12 09:33:21;;;;;;;6.90;6.20;;;8.40;99.90;;;;;;4971125;28;20046;-87
2023/04/12 09:35:47;;;;;;;6.05;5.50;;;8.40;99.90;;;;;;4955071;28;20090;-88
2023/04/12 09:38:13;;;;;;;6.55;5.95;;;8.40;99.90;;;;;;4987425;28;20045;-88
2023/04/12 09:40:39;;;;;;;7.28;6.57;;;8.50;99.90;;;;;;4971734;28;20046;-89
2023/04/12 09:43:05;;;;;;;9.45;7.05;;;8.60;99.90;;;;;;4955840;28;20050;-89
2023/04/12 09:45:37;;;;;;;7.63;6.85;;;8.60;99.90;;;;;;4956572;28;20049;-90
2023/04/12 09:48:03;;;;;;;8.40;7.57;;;8.70;99.90;;;;;;4974494;28;20098;-90
2023/04/12 09:50:31;;;;;;;7.97;7.28;;;8.90;99.90;;;;;;4973507;28;20135;-91
2023/04/12 09:52:57;;;;;;;7.65;6.95;;;9.00;99.90;;;;;;4957678;28;20058;-87
2023/04/12 09:55:24;;;;;;;8.10;7.10;;;9.00;99.90;;;;;;4984832;28;20172;-88
2023/04/12 09:57:51;;;;;;;10.13;6.80;;;8.90;99.90;;;;;;5001439;28;20065;-86
2023/04/12 10:00:17;;;;;;;10.63;8.43;;;9.10;99.90;;;;;;4965306;28;20046;-86
2023/04/12 10:02:53;;;;;;;9.70;7.70;;;9.20;99.90;;;;;;4982594;28;20456;-86
2023/04/12 10:05:20;;;;;;;8.00;7.20;;;9.30;99.90;;;;;;4966462;28;20490;-85
2023/04/12 10:07:46;;;;;;;7.68;6.90;;;9.40;99.90;;;;;;4964369;28;20058;-87
2023/04/12 10:10:12;;;;;;;7.65;6.85;;;9.40;99.90;;;;;;4981238;28;20052;-87
2023/04/12 10:12:39;;;;;;;9.05;6.97;;;9.60;99.90;;;;;;4982401;28;20050;-85
2023/04/12 10:15:11;;;;;;;7.97;6.78;;;9.80;99.90;;;;;;4999270;28;20100;-84
2023/04/12 10:17:45;;;;;;;7.60;6.90;;;9.90;99.90;;;;;;4982084;28;20474;-87
2023/04/12 10:20:15;;;;;;;7.22;6.53;;;9.90;99.90;;;;;;4984970;28;20046;-86
2023/04/12 10:22:42;;;;;;;7.18;6.45;;;10.00;99.90;;;;;;4964117;28;20043;-87
2023/04/12 10:25:19;;;;;;;7.10;6.35;;;10.00;99.90;;;;;;4982190;28;20053;-86
2023/04/12 10:27:45;;;;;;;7.80;5.35;;;10.00;99.90;;;;;;4964192;28;20054;-90
2023/04/12 10:30:27;;;;;;;6.90;5.82;;;10.00;99.90;;;;;;4957221;28;20072;-89
2023/04/12 10:33:02;;;;;;;6.70;5.60;;;10.10;99.90;;;;;;4958602;28;20061;-90
2023/04/12 10:35:28;;;;;;;6.40;5.78;;;10.40;99.90;;;;;;4990121;28;20047;-90
2023/04/12 10:37:58;;;;;;;8.05;5.38;;;10.50;99.90;;;;;;4958127;28;20502;-88
2023/04/12 10:40:24;;;;;;;9.60;5.43;;;10.50;99.90;;;;;;4990023;28;20050;-88
2023/04/12 10:43:20;;;;;;;8.50;5.68;;;10.50;99.90;;;;;;4974017;28;20046;-88
2023/04/12 10:45:45;;;;;;;7.13;5.68;;;10.60;99.90;;;;;;5003161;28;20074;-88
2023/04/12 10:48:31;;;;;;;5.80;5.13;;;10.90;99.90;;;;;;4986549;28;20430;-90
2023/04/12 10:51:24;;;;;;;6.65;5.40;;;10.50;99.90;;;;;;4989963;28;20050;-89
2023/04/12 10:53:53;;;;;;;7.45;5.57;;;10.70;99.90;;;;;;4981585;28;20050;-91
2023/04/12 10:56:30;;;;;;;5.82;5.20;;;10.80;99.90;;;;;;4993780;28;20077;-88
2023/04/12 10:59:00;;;;;;;9.52;5.00;;;11.00;99.90;;;;;;5000890;28;20054;-89
2023/04/12 11:01:26;;;;;;;5.38;4.88;;;10.90;99.90;;;;;;4971658;28;20053;-89
2023/04/12 11:04:04;;;;;;;7.28;4.82;;;11.30;99.90;;;;;;4973208;28;20073;-89
2023/04/12 11:06:42;;;;;;;5.88;4.43;;;11.30;99.90;;;;;;4986775;28;20052;-90
2023/04/12 11:09:32;;;;;;;7.00;4.20;;;11.80;99.90;;;;;;5000951;28;20046;-90
2023/04/12 11:12:04;;;;;;;7.70;4.40;;;12.40;99.90;;;;;;4986068;28;20050;-88
2023/04/12 11:14:35;;;;;;;8.77;4.00;;;12.30;99.90;;;;;;4997206;28;20054;-89
2023/04/12 11:17:13;;;;;;;8.88;4.38;;;12.10;99.90;;;;;;4963671;28;20053;-88
2023/04/12 11:19:39;;;;;;;5.68;3.80;;;12.10;99.90;;;;;;4977280;28;20061;-88
2023/04/12 11:22:13;;;;;;;10.10;4.90;;;12.10;99.90;;;;;;5005922;28;20047;-87
2023/04/12 11:24:39;;;;;;;7.43;4.28;;;12.30;99.90;;;;;;4996857;28;20054;-90
2023/04/12 11:27:05;;;;;;;7.97;3.58;;;12.00;99.90;;;;;;4985114;28;20152;-89
2023/04/12 11:29:33;;;;;;;9.77;4.07;;;11.90;99.90;;;;;;4996350;28;20768;-86
2023/04/12 11:32:01;;;;;;;8.68;3.80;;;12.30;99.90;;;;;;5010252;28;20045;-87
2023/04/12 11:34:31;;;;;;;7.45;2.97;;;12.50;99.90;;;;;;4993627;28;20060;-86
2023/04/12 11:36:57;;;;;;;6.32;3.35;;;12.30;99.90;;;;;;4967580;28;20081;-86
2023/04/12 11:39:23;;;;;;;10.73;3.17;;;12.20;99.90;;;;;;4983741;28;20116;-86
2023/04/12 11:41:49;;;;;;;8.75;3.17;;;12.30;99.90;;;;;;4978517;28;20061;-88
2023/04/12 11:44:18;;;;;;;9.93;3.47;;;12.50;99.90;;;;;;4994055;28;20046;-89
2023/04/12 11:46:44;;;;;;;8.73;2.95;;;12.60;99.90;;;;;;4986726;28;20057;-88
2023/04/12 11:49:14;;;;;;;9.27;3.10;;;12.70;99.90;;;;;;4975079;28;20050;-87
2023/04/12 11:51:40;;;;;;;6.28;2.80;;;12.90;99.90;;;;;;4978346;28;20057;-88
2023/04/12 11:54:06;;;;;;;7.15;2.90;;;13.20;99.90;;;;;;4994004;28;20057;-88
2023/04/12 11:56:32;;;;;;;9.85;2.97;;;13.00;99.90;;;;;;4994984;28;20061;-89
2023/04/12 11:58:58;;;;;;;6.63;2.72;;;13.00;99.90;;;;;;4989288;28;20108;-86
2023/04/12 12:01:23;;;;;;;10.40;2.90;;;13.20;99.90;;;;;;4969525;28;20053;-86
2023/04/12 12:03:49;;;;;;;11.75;3.35;;;13.30;99.90;;;;;;4965665;28;20062;-87
2023/04/12 12:06:15;;;;;;;7.53;2.45;;;13.20;99.90;;;;;;4974313;28;20062;-88
2023/04/12 12:08:40;;;;;;;6.60;2.05;;;13.30;99.90;;;;;;4957912;28;20050;-86
2023/04/12 12:11:06;;;;;;;9.25;2.63;;;13.20;99.90;;;;;;4974075;28;20061;-87
2023/04/12 12:13:48;;;;;;;8.60;2.47;;;13.40;99.90;;;;;;4974422;28;20058;-87
2023/04/12 12:16:14;;;;;;;9.50;3.00;;;13.30;99.90;;;;;;4974230;28;20061;-86
2023/04/12 12:18:41;;;;;;;12.00;3.38;;;13.00;99.90;;;;;;4973546;28;20084;-86
2023/04/12 12:21:12;;;;;;;6.47;2.10;;;12.40;99.90;;;;;;4958106;28;20057;-88
2023/04/12 12:23:38;;;;;;;10.65;2.78;;;12.70;99.90;;;;;;4957865;28;20080;-88
2023/04/12 12:26:05;;;;;;;8.05;2.58;;;12.40;99.90;;;;;;4989607;28;20073;-88
2023/04/12 12:28:40;;;;;;;12.50;3.53;;;12.30;99.90;;;;;;4974179;28;20057;-85
2023/04/12 12:31:06;;;;;;;10.45;2.28;;;12.30;99.90;;;;;;4957843;28;20057;-88
2023/04/12 12:33:37;;;;;;;12.25;2.72;;;12.40;99.90;;;;;;4972861;28;20050;-87
2023/04/12 12:36:02;;;;;;;9.38;2.22;;;12.50;99.90;;;;;;5000376;28;20050;-87
2023/04/12 12:38:35;;;;;;;10.52;2.40;;;12.60;99.90;;;;;;5019634;28;20048;-87
2023/04/12 12:41:20;;;;;;;12.55;2.85;;;12.70;99.90;;;;;;4965618;28;20046;-88
2023/04/12 12:43:51;;;;;;;11.00;2.13;;;13.20;99.90;;;;;;4973621;28;20062;-87
2023/04/12 12:46:17;;;;;;;12.68;2.55;;;13.60;99.90;;;;;;4966975;28;20074;-89
2023/04/12 12:48:43;;;;;;;11.43;2.65;;;13.70;99.90;;;;;;4969584;28;20085;-87
2023/04/12 12:51:10;;;;;;;8.10;2.22;;;13.70;98.90;;;;;;4998845;28;20465;-89
2023/04/12 12:53:36;;;;;;;13.30;2.40;;;13.50;99.40;;;;;;4984404;28;20046;-89
2023/04/12 12:56:02;;;;;;;8.52;2.22;;;13.60;98.00;;;;;;4967399;28;20053;-89